Time;durP1;ratioP1;P1;durP2;ratioP2;P2;SDS_P1;SDS_P2;PMS_P1;PMS_P2;Temp;Humidity;BMP_temperature;BMP_pressure;BME280_temperature;BME280_humidity;BME280_pressure;Samples;Min_cycle;Max_cycle;Signal;HPM_P1;HPM_P2
2024/03/29 00:01:35;;;;;;;2.10;1.27;;;4.30;99.90;;;;;;4945193;28;20019;-81
2024/03/29 00:04:01;;;;;;;1.63;1.07;;;4.30;99.90;;;;;;4961662;28;20114;-81
2024/03/29 00:06:26;;;;;;;1.50;1.00;;;4.30;99.90;;;;;;4945161;28;20030;-81
2024/03/29 00:08:52;;;;;;;1.30;0.90;;;4.30;99.90;;;;;;4962069;28;20027;-81
2024/03/29 00:11:18;;;;;;;1.50;1.10;;;4.30;99.90;;;;;;4959983;28;20027;-81
2024/03/29 00:13:43;;;;;;;1.57;0.97;;;4.30;99.90;;;;;;4961126;28;20030;-81
2024/03/29 00:16:09;;;;;;;1.93;1.10;;;4.30;99.90;;;;;;4960827;28;20031;-81
2024/03/29 00:18:35;;;;;;;2.23;1.80;;;4.30;99.90;;;;;;4962026;28;20027;-81
2024/03/29 00:21:00;;;;;;;2.73;1.40;;;4.30;99.90;;;;;;4961671;28;20480;-81
2024/03/29 00:23:26;;;;;;;2.07;1.00;;;4.30;99.90;;;;;;4964741;28;20105;-81
2024/03/29 00:25:51;;;;;;;3.00;0.90;;;4.30;99.90;;;;;;4960797;28;20118;-81
2024/03/29 00:28:17;;;;;;;1.10;0.90;;;4.30;99.90;;;;;;4962839;28;20034;-81
2024/03/29 00:30:43;;;;;;;3.57;1.10;;;4.20;99.90;;;;;;4962084;28;20057;-81
2024/03/29 00:33:09;;;;;;;4.57;1.70;;;4.20;99.90;;;;;;4962740;28;20031;-80
2024/03/29 00:35:34;;;;;;;2.07;1.17;;;4.20;99.90;;;;;;4961030;28;20065;-81
2024/03/29 00:38:00;;;;;;;1.93;1.20;;;4.20;99.90;;;;;;4959885;28;20015;-81
2024/03/29 00:40:25;;;;;;;1.50;1.00;;;4.10;99.90;;;;;;4960697;28;20023;-81
2024/03/29 00:42:51;;;;;;;2.00;1.00;;;4.10;99.90;;;;;;4963212;28;20435;-81
2024/03/29 00:45:16;;;;;;;1.80;0.80;;;4.10;99.90;;;;;;4959422;28;21186;-81
2024/03/29 00:47:43;;;;;;;1.63;0.80;;;4.00;99.90;;;;;;4963112;28;20120;-80
2024/03/29 00:50:09;;;;;;;1.90;0.80;;;4.00;99.90;;;;;;4962721;28;20047;-81
2024/03/29 00:52:35;;;;;;;1.40;1.00;;;4.00;99.90;;;;;;4960440;28;20415;-81
2024/03/29 00:55:01;;;;;;;1.70;0.80;;;4.00;99.90;;;;;;4960823;28;20022;-80
2024/03/29 00:57:26;;;;;;;1.33;0.83;;;4.00;99.90;;;;;;4961658;28;20792;-81
2024/03/29 00:59:52;;;;;;;0.80;0.70;;;3.90;99.90;;;;;;4961301;28;20027;-81
2024/03/29 01:02:17;;;;;;;2.13;0.80;;;3.90;99.90;;;;;;4962320;28;20046;-81
2024/03/29 01:04:43;;;;;;;2.20;0.80;;;3.90;99.90;;;;;;4965195;28;20042;-81
2024/03/29 01:07:09;;;;;;;2.20;0.80;;;3.90;99.90;;;;;;4964199;28;20046;-81
2024/03/29 01:09:34;;;;;;;2.10;0.80;;;3.90;99.90;;;;;;4964749;28;20030;-81
2024/03/29 01:12:00;;;;;;;1.50;0.97;;;3.80;99.90;;;;;;4964141;28;20065;-81
2024/03/29 01:14:25;;;;;;;1.10;0.80;;;3.80;99.90;;;;;;4968074;28;21092;-81
2024/03/29 01:16:51;;;;;;;1.50;0.90;;;3.80;99.90;;;;;;4947661;28;20062;-81
2024/03/29 01:19:16;;;;;;;1.07;0.80;;;3.70;99.90;;;;;;4963336;28;20253;-81
2024/03/29 01:21:42;;;;;;;2.33;1.07;;;3.70;99.90;;;;;;4963786;28;20015;-80
2024/03/29 01:24:07;;;;;;;1.00;0.80;;;3.70;99.90;;;;;;4948726;28;20655;-81
2024/03/29 01:26:33;;;;;;;1.07;0.80;;;3.60;99.90;;;;;;4964523;28;20072;-81
2024/03/29 01:28:58;;;;;;;1.33;0.80;;;3.60;99.90;;;;;;4963692;28;20121;-81
2024/03/29 01:31:24;;;;;;;1.27;1.00;;;3.60;99.90;;;;;;4946900;28;20049;-81
2024/03/29 01:33:50;;;;;;;2.37;1.20;;;3.60;99.90;;;;;;4966084;28;20028;-81
2024/03/29 01:36:15;;;;;;;4.60;2.10;;;3.60;99.90;;;;;;4962780;28;20027;-81
2024/03/29 01:38:42;;;;;;;3.33;1.70;;;3.50;99.90;;;;;;4963087;28;20080;-81
2024/03/29 01:41:08;;;;;;;3.90;1.30;;;3.50;99.90;;;;;;4965117;28;20027;-80
2024/03/29 01:43:34;;;;;;;2.80;1.47;;;3.50;99.90;;;;;;4962546;28;20023;-81
2024/03/29 01:45:59;;;;;;;4.07;1.53;;;3.50;99.90;;;;;;4964035;28;20031;-81
2024/03/29 01:48:26;;;;;;;3.13;1.67;;;3.50;99.90;;;;;;4965750;28;20034;-81
2024/03/29 01:50:55;;;;;;;5.13;1.83;;;3.50;99.90;;;;;;4964088;28;20038;-81
2024/03/29 01:53:22;;;;;;;3.33;1.73;;;3.50;99.90;;;;;;4965852;28;20023;-81
2024/03/29 01:55:47;;;;;;;2.57;1.20;;;3.40;99.90;;;;;;4963985;28;20031;-81
2024/03/29 01:58:14;;;;;;;2.47;1.40;;;3.40;99.90;;;;;;4963314;28;20033;-81
2024/03/29 02:00:48;;;;;;;1.63;0.93;;;3.40;99.90;;;;;;4963610;28;20039;-81
2024/03/29 02:03:15;;;;;;;1.48;1.05;;;3.40;99.90;;;;;;4964360;28;20031;-81
2024/03/29 02:05:41;;;;;;;2.00;1.00;;;3.30;99.90;;;;;;4962577;28;20055;-81
2024/03/29 02:08:07;;;;;;;2.03;1.30;;;3.30;99.90;;;;;;4963404;28;20447;-81
2024/03/29 02:10:35;;;;;;;1.87;1.00;;;3.30;99.90;;;;;;4961647;28;20107;-81
2024/03/29 02:13:00;;;;;;;2.50;1.30;;;3.20;99.90;;;;;;4944640;28;20039;-81
2024/03/29 02:15:28;;;;;;;1.50;1.00;;;3.30;99.90;;;;;;4963427;28;20035;-80
2024/03/29 02:17:54;;;;;;;1.70;0.90;;;3.30;99.90;;;;;;4945145;28;20043;-80
2024/03/29 02:20:20;;;;;;;3.80;1.43;;;3.20;99.90;;;;;;4962812;28;20058;-81
2024/03/29 02:23:04;;;;;;;2.73;1.50;;;3.20;99.90;;;;;;4963524;28;20062;-81
2024/03/29 02:25:30;;;;;;;1.70;1.00;;;3.20;99.90;;;;;;4963609;28;20747;-81
2024/03/29 02:27:56;;;;;;;3.07;1.20;;;3.20;99.90;;;;;;4965142;28;20042;-81
2024/03/29 02:30:22;;;;;;;1.73;1.03;;;3.20;99.90;;;;;;4964112;28;20074;-81
2024/03/29 02:32:48;;;;;;;1.30;0.93;;;3.20;99.90;;;;;;4963127;28;20031;-81
2024/03/29 02:35:13;;;;;;;1.90;1.00;;;3.20;99.90;;;;;;4961657;28;20505;-81
2024/03/29 02:37:39;;;;;;;1.73;1.10;;;3.20;99.90;;;;;;4964720;28;20059;-81
2024/03/29 02:40:05;;;;;;;1.77;0.93;;;3.20;99.90;;;;;;4960751;28;20057;-81
2024/03/29 02:42:32;;;;;;;2.23;1.10;;;3.20;99.90;;;;;;4962896;28;20090;-81
2024/03/29 02:44:57;;;;;;;2.43;1.00;;;3.10;99.90;;;;;;4963937;28;20442;-81
2024/03/29 02:47:23;;;;;;;1.73;0.90;;;3.20;99.90;;;;;;4963279;28;20038;-81
2024/03/29 02:49:48;;;;;;;3.20;1.00;;;3.20;99.90;;;;;;4961441;28;20131;-81
2024/03/29 02:52:14;;;;;;;2.33;1.10;;;3.20;99.90;;;;;;4962684;28;20019;-81
2024/03/29 02:54:41;;;;;;;2.53;0.90;;;3.10;99.90;;;;;;4963184;28;20027;-81
2024/03/29 02:57:06;;;;;;;1.37;0.80;;;3.10;99.90;;;;;;4962929;28;20054;-81
2024/03/29 02:59:32;;;;;;;1.20;0.87;;;3.10;99.90;;;;;;4962655;28;20066;-81
2024/03/29 03:01:57;;;;;;;0.80;0.80;;;3.10;99.90;;;;;;4962333;28;20096;-81
2024/03/29 03:04:23;;;;;;;1.27;0.80;;;3.10;99.90;;;;;;4964372;28;20034;-81
2024/03/29 03:06:49;;;;;;;2.03;0.90;;;3.10;99.90;;;;;;4961129;28;20039;-81
2024/03/29 03:11:59;;;;;;;1.50;0.83;;;3.00;99.90;;;;;;4962246;28;20033;-81
2024/03/29 03:14:24;;;;;;;0.73;0.70;;;3.00;99.90;;;;;;4944985;28;20027;-81
2024/03/29 03:16:50;;;;;;;1.00;0.70;;;3.00;99.90;;;;;;4962273;28;20027;-81
2024/03/29 03:19:15;;;;;;;0.80;0.73;;;3.00;99.90;;;;;;4962315;28;20229;-81
2024/03/29 03:21:41;;;;;;;1.03;0.80;;;3.00;99.90;;;;;;4944026;28;20051;-81
2024/03/29 03:24:06;;;;;;;0.90;0.80;;;3.00;99.90;;;;;;4960662;28;20109;-80
2024/03/29 03:26:32;;;;;;;0.90;0.70;;;3.00;99.90;;;;;;4961069;28;20768;-81
2024/03/29 03:28:57;;;;;;;0.60;0.60;;;3.00;99.90;;;;;;4962279;28;20030;-81
2024/03/29 03:31:23;;;;;;;0.70;0.70;;;3.00;99.90;;;;;;4961489;28;20019;-80
2024/03/29 03:33:49;;;;;;;0.70;0.70;;;3.00;99.90;;;;;;4962473;28;20033;-82
2024/03/29 03:36:14;;;;;;;1.17;0.80;;;3.00;99.90;;;;;;4959510;28;20103;-81
2024/03/29 03:38:40;;;;;;;0.70;0.70;;;3.00;99.90;;;;;;4959916;28;20030;-81
2024/03/29 03:41:06;;;;;;;0.80;0.60;;;3.00;99.90;;;;;;4962128;28;20082;-80
2024/03/29 03:43:31;;;;;;;1.53;0.90;;;3.00;99.90;;;;;;4963934;28;20026;-81
2024/03/29 03:46:01;;;;;;;2.13;0.90;;;3.00;99.90;;;;;;4964169;28;20097;-81
2024/03/29 03:48:28;;;;;;;2.10;1.10;;;3.00;99.90;;;;;;4946673;28;21226;-81
2024/03/29 03:50:54;;;;;;;4.57;1.20;;;3.00;99.90;;;;;;4962192;28;20026;-81
2024/03/29 03:53:20;;;;;;;3.40;0.90;;;3.00;99.90;;;;;;4960924;28;20050;-80
2024/03/29 03:55:45;;;;;;;1.23;0.73;;;3.00;99.90;;;;;;4962022;28;20062;-81
2024/03/29 03:58:11;;;;;;;2.10;1.10;;;3.00;99.90;;;;;;4960836;28;20050;-80
2024/03/29 04:00:37;;;;;;;1.93;1.00;;;3.00;99.90;;;;;;4961271;28;20031;-81
2024/03/29 04:03:03;;;;;;;1.77;1.07;;;3.00;99.90;;;;;;4960147;28;20035;-81
2024/03/29 04:05:31;;;;;;;1.10;0.87;;;3.00;99.90;;;;;;4959911;28;20019;-80
2024/03/29 04:07:57;;;;;;;2.17;0.90;;;3.00;99.90;;;;;;4962465;28;20182;-81
2024/03/29 04:10:22;;;;;;;1.00;0.70;;;2.90;99.90;;;;;;4946011;28;20486;-81
2024/03/29 04:12:49;;;;;;;1.53;0.73;;;2.90;99.90;;;;;;4943879;28;20030;-81
2024/03/29 04:15:15;;;;;;;1.17;0.90;;;2.90;99.90;;;;;;4961933;28;20578;-81
2024/03/29 04:17:41;;;;;;;1.47;0.80;;;2.90;99.90;;;;;;4960489;28;20023;-81
2024/03/29 04:20:06;;;;;;;1.70;1.00;;;2.80;99.90;;;;;;4961522;28;20087;-80
2024/03/29 04:22:32;;;;;;;1.60;0.90;;;2.80;99.90;;;;;;4963775;28;20038;-81
2024/03/29 04:24:58;;;;;;;1.63;0.80;;;2.80;99.90;;;;;;4963249;28;20035;-80
2024/03/29 04:27:23;;;;;;;2.00;0.90;;;2.70;99.90;;;;;;4960966;28;20422;-81
2024/03/29 04:29:52;;;;;;;1.73;0.93;;;2.70;99.90;;;;;;4961328;28;20049;-81
2024/03/29 04:32:18;;;;;;;1.83;0.80;;;2.70;99.90;;;;;;4960155;28;20042;-81
2024/03/29 04:34:51;;;;;;;1.13;0.80;;;2.70;99.90;;;;;;4961652;28;20027;-81
2024/03/29 04:37:17;;;;;;;1.00;0.80;;;2.60;99.90;;;;;;4956633;28;20034;-81
2024/03/29 04:39:43;;;;;;;1.60;0.77;;;2.60;99.90;;;;;;4962148;28;20015;-81
2024/03/29 04:42:09;;;;;;;0.80;0.70;;;2.60;99.90;;;;;;4960176;28;20031;-81
2024/03/29 04:44:34;;;;;;;1.53;0.80;;;2.60;99.90;;;;;;4960321;28;20034;-81
2024/03/29 04:47:01;;;;;;;4.07;2.80;;;2.60;99.90;;;;;;4957891;28;20038;-81
2024/03/29 04:49:34;;;;;;;3.00;1.93;;;2.70;99.90;;;;;;4960474;28;20045;-81
2024/03/29 04:52:00;;;;;;;2.80;1.80;;;2.70;99.90;;;;;;4960563;28;20094;-81
2024/03/29 04:54:26;;;;;;;4.90;2.90;;;2.70;99.90;;;;;;4959014;28;20062;-81
2024/03/29 04:56:53;;;;;;;4.77;2.97;;;2.80;99.90;;;;;;4960273;28;20027;-81
2024/03/29 04:59:20;;;;;;;2.90;1.90;;;2.70;99.90;;;;;;4959103;28;20031;-81
2024/03/29 05:01:53;;;;;;;3.53;1.40;;;2.80;99.90;;;;;;4958331;28;20042;-81
2024/03/29 05:04:25;;;;;;;1.30;1.13;;;2.80;99.90;;;;;;4959182;28;20023;-82
2024/03/29 05:06:54;;;;;;;1.27;0.83;;;2.80;99.90;;;;;;4959589;28;20206;-81
2024/03/29 05:09:20;;;;;;;1.60;1.03;;;2.80;99.90;;;;;;4959509;28;20019;-81
2024/03/29 05:11:49;;;;;;;3.20;1.60;;;2.80;99.90;;;;;;4960981;28;20035;-82
2024/03/29 05:14:17;;;;;;;2.10;1.40;;;2.80;99.90;;;;;;4958879;28;20059;-81
2024/03/29 05:16:46;;;;;;;2.53;1.23;;;2.80;99.90;;;;;;4958269;28;20105;-83
2024/03/29 05:19:13;;;;;;;3.50;1.50;;;2.80;99.90;;;;;;4942674;28;20041;-84
2024/03/29 05:21:39;;;;;;;4.83;2.40;;;2.90;99.90;;;;;;4960922;28;20023;-81
2024/03/29 05:24:05;;;;;;;5.47;3.50;;;2.90;99.90;;;;;;4958802;28;20023;-81
2024/03/29 05:26:31;;;;;;;3.47;2.00;;;3.00;99.90;;;;;;4955654;28;20035;-81
2024/03/29 05:29:00;;;;;;;5.87;3.17;;;3.10;99.90;;;;;;4957148;28;20472;-81
2024/03/29 05:31:26;;;;;;;8.63;5.00;;;3.10;99.90;;;;;;4956586;28;20077;-82
2024/03/29 05:33:52;;;;;;;3.87;2.03;;;3.20;99.90;;;;;;4959009;28;20051;-81
2024/03/29 05:36:18;;;;;;;1.10;0.90;;;3.30;99.90;;;;;;4957645;28;20023;-81
2024/03/29 05:38:44;;;;;;;1.10;1.00;;;3.40;99.90;;;;;;4957437;28;20159;-81
2024/03/29 05:41:10;;;;;;;2.67;0.87;;;3.60;99.90;;;;;;4958758;28;20039;-81
2024/03/29 05:43:35;;;;;;;1.40;1.00;;;3.70;99.90;;;;;;4957651;28;20043;-81
2024/03/29 05:46:02;;;;;;;0.63;0.60;;;3.80;99.90;;;;;;4958209;28;20035;-81
2024/03/29 05:48:28;;;;;;;1.40;0.80;;;3.90;99.90;;;;;;4961094;28;20114;-85
2024/03/29 05:50:54;;;;;;;0.73;0.73;;;4.10;99.90;;;;;;4943873;28;20089;-80
2024/03/29 05:53:20;;;;;;;1.63;1.10;;;4.20;99.90;;;;;;4961742;28;20479;-86
2024/03/29 05:55:45;;;;;;;0.60;0.60;;;4.30;99.90;;;;;;4961214;28;20562;-85
2024/03/29 05:58:16;;;;;;;1.77;0.90;;;4.40;99.90;;;;;;4962341;28;20097;-84
2024/03/29 06:00:41;;;;;;;0.93;0.70;;;4.50;99.90;;;;;;4959789;28;20019;-88
2024/03/29 06:03:07;;;;;;;0.90;0.70;;;4.70;99.90;;;;;;4958834;28;20061;-87
2024/03/29 06:05:33;;;;;;;2.27;1.60;;;4.80;99.90;;;;;;4960872;28;20031;-76
2024/03/29 06:07:58;;;;;;;2.47;1.23;;;4.90;99.90;;;;;;4960567;28;20034;-84
2024/03/29 06:10:24;;;;;;;3.87;1.87;;;5.10;99.90;;;;;;4960943;28;20027;-84
2024/03/29 06:12:51;;;;;;;3.17;1.07;;;5.20;99.90;;;;;;4961192;28;20034;-84
2024/03/29 06:18:01;;;;;;;2.10;0.93;;;5.50;99.90;;;;;;4963158;28;20595;-85
2024/03/29 06:20:27;;;;;;;1.80;1.30;;;5.70;99.90;;;;;;4962964;28;20104;-84
2024/03/29 06:22:53;;;;;;;3.70;1.30;;;5.80;99.90;;;;;;4961602;28;20026;-86
2024/03/29 06:25:18;;;;;;;1.10;0.80;;;6.00;99.90;;;;;;4959668;28;21320;-84
2024/03/29 06:27:47;;;;;;;1.37;0.70;;;6.20;99.90;;;;;;4962288;28;20039;-85
2024/03/29 06:30:13;;;;;;;0.70;0.70;;;6.40;99.90;;;;;;4963218;28;20058;-84
2024/03/29 06:32:39;;;;;;;2.90;1.60;;;6.60;99.90;;;;;;4961729;28;20085;-85
2024/03/29 06:35:05;;;;;;;1.80;1.07;;;6.70;99.90;;;;;;4960518;28;20022;-85
2024/03/29 06:37:31;;;;;;;0.90;0.80;;;6.90;99.90;;;;;;4960394;28;20027;-85
2024/03/29 06:39:56;;;;;;;1.33;0.83;;;7.00;99.90;;;;;;4962648;28;20030;-84
2024/03/29 06:42:22;;;;;;;1.10;1.00;;;7.20;99.90;;;;;;4963274;28;20045;-84
2024/03/29 06:44:48;;;;;;;0.87;0.80;;;7.30;99.90;;;;;;4942797;28;20030;-84
2024/03/29 06:47:14;;;;;;;1.83;1.10;;;7.50;99.90;;;;;;4961050;28;20768;-84
2024/03/29 06:49:39;;;;;;;2.70;1.43;;;7.60;99.90;;;;;;4959522;28;20038;-85
2024/03/29 06:52:05;;;;;;;1.87;1.10;;;7.80;99.90;;;;;;4960993;28;20085;-85
2024/03/29 06:54:32;;;;;;;1.47;0.90;;;8.00;99.90;;;;;;4963314;28;20110;-84
2024/03/29 06:56:58;;;;;;;1.80;0.93;;;8.10;99.90;;;;;;4962476;28;20109;-85
2024/03/29 06:59:24;;;;;;;0.90;0.80;;;8.30;99.90;;;;;;4941181;28;20041;-85
2024/03/29 07:01:52;;;;;;;0.97;0.80;;;8.40;99.90;;;;;;4962233;28;20497;-85
2024/03/29 07:04:22;;;;;;;1.03;0.80;;;8.60;99.90;;;;;;4961468;28;20099;-84
2024/03/29 07:06:50;;;;;;;1.87;0.90;;;8.90;99.90;;;;;;4960477;28;20042;-84
2024/03/29 07:09:17;;;;;;;1.50;0.80;;;9.10;99.90;;;;;;4945652;28;20406;-84
2024/03/29 07:11:42;;;;;;;0.77;0.67;;;9.30;99.90;;;;;;4963041;28;20203;-84
2024/03/29 07:14:08;;;;;;;0.93;0.70;;;9.30;99.90;;;;;;4942899;28;20019;-84
2024/03/29 07:16:34;;;;;;;1.97;0.77;;;9.40;99.90;;;;;;4960111;28;20035;-83
2024/03/29 07:18:59;;;;;;;1.07;0.80;;;9.50;99.90;;;;;;4959952;28;20031;-82
2024/03/29 07:21:25;;;;;;;1.10;0.80;;;9.60;99.90;;;;;;4963941;28;20058;-84
2024/03/29 07:23:50;;;;;;;1.50;1.10;;;9.70;99.90;;;;;;4965764;28;20110;-83
2024/03/29 07:26:16;;;;;;;4.30;1.20;;;9.90;99.90;;;;;;4966203;28;20030;-83
2024/03/29 07:28:42;;;;;;;1.83;0.90;;;10.00;99.90;;;;;;4961269;28;20034;-83
2024/03/29 07:31:08;;;;;;;1.27;0.87;;;10.10;99.90;;;;;;4960922;28;20023;-83
2024/03/29 07:33:34;;;;;;;3.20;1.20;;;10.10;99.90;;;;;;4943017;28;20027;-83
2024/03/29 07:35:59;;;;;;;0.70;0.60;;;10.20;99.90;;;;;;4961523;28;20023;-83
2024/03/29 07:38:25;;;;;;;1.67;1.00;;;10.40;99.90;;;;;;4943845;28;20368;-83
2024/03/29 07:40:51;;;;;;;3.40;0.77;;;10.60;99.90;;;;;;4960168;28;20296;-83
2024/03/29 07:43:18;;;;;;;1.00;0.80;;;10.80;99.90;;;;;;4934571;28;20046;-83
2024/03/29 07:45:44;;;;;;;1.30;0.87;;;11.00;99.90;;;;;;4959747;28;20509;-83
2024/03/29 07:48:13;;;;;;;1.95;0.90;;;11.20;99.90;;;;;;4957978;28;20045;-83
2024/03/29 07:50:39;;;;;;;2.23;0.93;;;11.30;99.90;;;;;;4958631;28;20055;-83
2024/03/29 07:53:04;;;;;;;2.10;1.37;;;11.40;99.90;;;;;;4961112;28;20027;-83
2024/03/29 07:55:30;;;;;;;2.55;1.67;;;11.50;99.90;;;;;;4957998;28;20096;-83
2024/03/29 07:57:56;;;;;;;3.15;1.15;;;11.70;99.90;;;;;;4958323;28;20122;-83
2024/03/29 08:00:22;;;;;;;1.15;1.00;;;11.80;99.90;;;;;;4959569;28;20106;-83
2024/03/29 08:02:47;;;;;;;1.33;0.90;;;12.10;99.90;;;;;;4961362;28;20031;-83
2024/03/29 08:05:13;;;;;;;2.55;1.20;;;12.20;99.90;;;;;;4941590;28;20878;-83
2024/03/29 08:07:39;;;;;;;2.28;1.40;;;12.40;99.90;;;;;;4959174;28;20038;-84
2024/03/29 08:10:06;;;;;;;3.35;1.08;;;12.50;99.90;;;;;;4958889;28;20114;-83
2024/03/29 08:12:32;;;;;;;2.92;0.95;;;12.70;99.90;;;;;;4958188;28;20031;-84
2024/03/29 08:14:58;;;;;;;3.45;1.10;;;13.00;99.90;;;;;;4956958;28;20070;-84
2024/03/29 08:17:24;;;;;;;3.05;0.70;;;13.30;99.90;;;;;;4956525;28;20039;-85
2024/03/29 08:19:50;;;;;;;0.52;0.50;;;13.60;99.90;;;;;;4955628;28;20022;-84
2024/03/29 08:22:16;;;;;;;1.63;0.77;;;13.80;99.90;;;;;;4957250;28;20089;-85
2024/03/29 08:24:41;;;;;;;2.20;0.77;;;13.90;99.90;;;;;;4955045;28;20023;-84
2024/03/29 08:27:07;;;;;;;2.58;0.80;;;14.00;99.90;;;;;;4953164;28;20043;-84
2024/03/29 08:29:33;;;;;;;1.83;0.90;;;14.20;99.90;;;;;;4954651;28;20092;-83
2024/03/29 08:31:58;;;;;;;0.98;0.70;;;14.30;99.90;;;;;;4956440;28;20027;-84
2024/03/29 08:34:24;;;;;;;0.98;0.60;;;14.50;99.90;;;;;;4956444;28;20038;-83
2024/03/29 08:36:49;;;;;;;1.13;0.60;;;14.70;99.90;;;;;;4955154;28;20808;-84
2024/03/29 08:39:16;;;;;;;1.25;0.70;;;14.90;99.90;;;;;;4956793;28;20344;-84
2024/03/29 08:41:42;;;;;;;1.67;0.57;;;15.10;99.90;;;;;;4939760;28;20049;-84
2024/03/29 08:44:07;;;;;;;5.90;0.80;;;15.20;99.90;;;;;;4955745;28;20106;-84
2024/03/29 08:46:33;;;;;;;1.27;0.77;;;15.40;99.90;;;;;;4954611;28;20042;-84
2024/03/29 08:48:58;;;;;;;1.65;0.60;;;15.60;99.90;;;;;;4954421;28;20178;-84
2024/03/29 08:51:24;;;;;;;1.50;0.80;;;15.70;99.90;;;;;;4938198;28;20039;-84
2024/03/29 08:53:50;;;;;;;1.30;0.90;;;15.90;99.90;;;;;;4955943;28;20142;-84
2024/03/29 08:56:16;;;;;;;1.42;0.88;;;16.00;99.90;;;;;;4954752;28;20073;-84
2024/03/29 08:58:41;;;;;;;1.33;0.82;;;16.00;99.90;;;;;;4955972;28;20681;-84
2024/03/29 09:01:07;;;;;;;4.22;1.10;;;16.10;99.90;;;;;;4935741;28;20032;-84
2024/03/29 09:03:32;;;;;;;1.48;0.65;;;16.10;99.90;;;;;;4954701;28;20043;-83
2024/03/29 09:05:58;;;;;;;1.27;0.57;;;16.10;99.90;;;;;;4951843;28;20039;-84
2024/03/29 09:08:23;;;;;;;2.22;0.85;;;16.10;99.90;;;;;;4954467;28;21127;-84
2024/03/29 09:10:49;;;;;;;1.17;0.80;;;16.20;99.90;;;;;;4954706;28;20046;-84
2024/03/29 09:13:15;;;;;;;0.90;0.70;;;16.20;99.90;;;;;;4954691;28;20364;-84
2024/03/29 09:15:40;;;;;;;1.98;0.82;;;16.40;99.90;;;;;;4954971;28;20039;-85
2024/03/29 09:18:26;;;;;;;2.63;1.00;;;16.50;99.90;;;;;;4954594;28;20061;-84
2024/03/29 09:20:59;;;;;;;3.20;1.10;;;16.70;99.90;;;;;;4954635;28;20420;-85
2024/03/29 09:23:28;;;;;;;2.95;1.10;;;16.90;99.90;;;;;;4938583;28;20019;-84
2024/03/29 09:25:55;;;;;;;3.38;1.60;;;17.10;99.90;;;;;;4957688;28;20663;-84
2024/03/29 09:28:22;;;;;;;2.20;1.23;;;17.20;99.90;;;;;;4955350;28;20038;-84
2024/03/29 09:30:48;;;;;;;0.82;0.65;;;17.30;99.90;;;;;;4956650;28;20082;-84
2024/03/29 09:33:14;;;;;;;3.13;0.80;;;17.60;99.90;;;;;;4956238;28;20591;-84
2024/03/29 09:35:39;;;;;;;2.20;0.80;;;17.80;99.90;;;;;;4956581;28;20031;-84
2024/03/29 09:38:05;;;;;;;2.55;0.80;;;17.80;99.90;;;;;;4957924;28;20125;-84
2024/03/29 09:40:32;;;;;;;1.95;0.77;;;17.80;99.90;;;;;;4956320;28;20057;-85
2024/03/29 09:43:02;;;;;;;0.70;0.60;;;17.80;99.90;;;;;;4957683;28;20035;-84
2024/03/29 09:45:36;;;;;;;2.42;0.70;;;17.90;99.90;;;;;;4958031;28;20027;-84
2024/03/29 09:48:05;;;;;;;1.77;0.95;;;17.90;99.90;;;;;;4956151;28;21919;-84
2024/03/29 09:50:37;;;;;;;2.20;1.70;;;18.00;99.90;;;;;;4957098;28;20120;-85
2024/03/29 09:53:08;;;;;;;1.98;1.05;;;18.10;99.90;;;;;;4957549;28;20019;-85
2024/03/29 09:55:35;;;;;;;1.27;0.70;;;18.00;99.90;;;;;;4957556;28;20027;-83
2024/03/29 09:58:01;;;;;;;1.38;0.75;;;17.90;99.90;;;;;;4957349;28;20645;-85
2024/03/29 10:00:27;;;;;;;0.85;0.60;;;17.90;99.90;;;;;;4959190;28;20027;-84
2024/03/29 10:02:59;;;;;;;1.42;0.77;;;18.00;99.90;;;;;;4957744;28;20435;-84
2024/03/29 10:05:27;;;;;;;2.60;0.93;;;17.90;99.90;;;;;;4955912;28;20019;-84
2024/03/29 10:07:53;;;;;;;3.20;1.20;;;17.90;99.90;;;;;;4958550;28;20069;-84
2024/03/29 10:10:19;;;;;;;1.38;0.90;;;17.90;99.90;;;;;;4956230;28;20034;-84
2024/03/29 10:12:45;;;;;;;1.88;0.77;;;17.90;99.90;;;;;;4957365;28;20035;-84
2024/03/29 10:15:14;;;;;;;3.05;0.80;;;17.90;99.90;;;;;;4955770;28;20031;-85
2024/03/29 10:17:46;;;;;;;3.53;1.30;;;18.00;99.90;;;;;;4957869;28;20041;-84
2024/03/29 10:20:12;;;;;;;1.33;0.80;;;18.00;99.90;;;;;;4955894;28;20045;-84
2024/03/29 10:22:43;;;;;;;1.88;0.80;;;18.10;99.90;;;;;;4956981;28;20031;-85
2024/03/29 10:25:08;;;;;;;3.05;0.70;;;18.20;99.90;;;;;;4956718;28;20034;-84
2024/03/29 10:27:34;;;;;;;1.35;0.80;;;18.20;99.90;;;;;;4957057;28;20041;-84
2024/03/29 10:30:00;;;;;;;1.35;0.77;;;18.30;99.90;;;;;;4955135;28;20111;-85
2024/03/29 10:32:25;;;;;;;5.13;0.60;;;18.40;99.90;;;;;;4956258;28;20053;-84
2024/03/29 10:34:51;;;;;;;0.95;0.70;;;18.50;99.90;;;;;;4955336;28;20031;-85
2024/03/29 10:37:29;;;;;;;1.27;0.70;;;18.60;99.90;;;;;;4955908;28;20065;-84
2024/03/29 10:39:56;;;;;;;0.90;0.70;;;18.80;99.90;;;;;;4956049;28;20030;-84
2024/03/29 10:42:25;;;;;;;2.63;0.80;;;19.00;99.90;;;;;;4956065;28;20019;-84
2024/03/29 10:44:51;;;;;;;2.00;0.70;;;19.00;99.90;;;;;;4957323;28;20815;-85
2024/03/29 10:47:20;;;;;;;1.42;0.77;;;19.00;99.90;;;;;;4938402;28;20043;-85
2024/03/29 10:49:49;;;;;;;0.95;0.50;;;19.10;99.90;;;;;;4955744;28;20046;-83
2024/03/29 10:52:17;;;;;;;1.15;0.60;;;19.10;99.90;;;;;;4955640;28;20086;-85
2024/03/29 10:54:44;;;;;;;1.25;0.80;;;19.10;99.90;;;;;;4958721;28;20094;-86
2024/03/29 10:57:17;;;;;;;1.52;0.90;;;19.10;99.90;;;;;;4940013;28;20039;-85
2024/03/29 11:00:04;;;;;;;1.80;0.90;;;19.30;99.90;;;;;;4959135;28;20031;-84
2024/03/29 11:02:34;;;;;;;1.67;0.70;;;19.40;99.90;;;;;;4960080;28;20031;-84
2024/03/29 11:05:05;;;;;;;3.08;0.70;;;19.50;99.90;;;;;;4959353;28;20483;-85
2024/03/29 11:07:34;;;;;;;1.23;0.85;;;19.50;99.90;;;;;;4956258;28;20035;-84
2024/03/29 11:10:02;;;;;;;0.77;0.68;;;19.50;99.90;;;;;;4955831;28;20049;-85
2024/03/29 11:12:30;;;;;;;0.93;0.60;;;19.50;99.90;;;;;;4957239;28;20547;-85
2024/03/29 11:15:05;;;;;;;1.73;0.65;;;19.50;99.90;;;;;;4953473;28;20530;-85
2024/03/29 11:17:30;;;;;;;1.35;0.70;;;19.50;99.90;;;;;;4955873;28;20027;-85
2024/03/29 11:19:59;;;;;;;2.33;0.73;;;19.60;99.90;;;;;;4955925;28;20922;-85
2024/03/29 11:22:24;;;;;;;0.85;0.60;;;19.70;99.90;;;;;;4954592;28;20471;-84
2024/03/29 11:24:53;;;;;;;2.42;0.88;;;19.90;99.90;;;;;;4955107;28;20101;-85
2024/03/29 11:27:23;;;;;;;2.47;0.60;;;19.90;99.90;;;;;;4955059;28;20050;-84
2024/03/29 11:29:50;;;;;;;0.95;0.60;;;19.90;99.90;;;;;;4955433;28;20503;-85
2024/03/29 11:32:33;;;;;;;3.30;0.63;;;20.00;99.80;;;;;;4954994;28;20027;-85
2024/03/29 11:34:59;;;;;;;1.60;0.90;;;19.90;99.40;;;;;;4954427;28;20053;-84
2024/03/29 11:37:30;;;;;;;1.08;0.60;;;20.10;99.70;;;;;;4955846;28;20448;-84
2024/03/29 11:39:58;;;;;;;2.33;0.63;;;20.30;99.90;;;;;;4954771;28;20531;-85
2024/03/29 11:42:38;;;;;;;1.63;0.70;;;20.50;99.90;;;;;;4955750;28;20015;-84
2024/03/29 11:45:04;;;;;;;1.52;0.60;;;20.80;99.80;;;;;;4953389;28;20035;-85
2024/03/29 11:47:31;;;;;;;1.48;0.95;;;21.00;99.90;;;;;;4952870;28;20665;-86
2024/03/29 11:49:58;;;;;;;2.53;0.60;;;21.30;98.50;;;;;;4954003;28;20480;-85
2024/03/29 11:52:25;;;;;;;1.45;0.60;;;21.40;97.50;;;;;;4954707;28;20029;-85
2024/03/29 11:54:51;;;;;;;1.38;0.73;;;21.60;96.80;;;;;;4938728;28;20034;-85
2024/03/29 11:57:16;;;;;;;2.22;0.50;;;21.60;97.90;;;;;;4953950;28;20046;-85
2024/03/29 11:59:42;;;;;;;1.08;0.65;;;21.70;96.20;;;;;;4952496;28;20027;-85
2024/03/29 12:02:13;;;;;;;1.88;0.65;;;21.70;97.00;;;;;;4937198;28;20073;-85
2024/03/29 12:04:42;;;;;;;0.80;0.50;;;21.80;97.70;;;;;;4953842;28;20038;-85
2024/03/29 12:07:07;;;;;;;3.30;0.57;;;21.60;96.20;;;;;;4953271;28;20085;-84
2024/03/29 12:09:33;;;;;;;1.55;0.57;;;21.30;96.70;;;;;;4953666;28;20491;-86
2024/03/29 12:12:05;;;;;;;0.50;0.50;;;21.20;96.50;;;;;;4953834;28;20035;-85
2024/03/29 12:14:35;;;;;;;1.45;0.68;;;21.20;96.60;;;;;;4952988;28;20039;-85
2024/03/29 12:17:09;;;;;;;0.73;0.50;;;21.30;96.30;;;;;;4954973;28;20123;-85
2024/03/29 12:19:38;;;;;;;2.20;0.57;;;21.40;96.50;;;;;;4955835;28;20476;-85
2024/03/29 12:22:03;;;;;;;1.35;0.82;;;21.60;96.70;;;;;;4952916;28;20374;-85
2024/03/29 12:24:29;;;;;;;0.55;0.52;;;21.70;96.50;;;;;;4952270;28;20110;-85
2024/03/29 12:26:55;;;;;;;0.30;0.30;;;21.90;97.90;;;;;;4952699;28;20052;-86
2024/03/29 12:29:21;;;;;;;0.90;0.50;;;22.20;94.10;;;;;;4959437;28;20496;-82
2024/03/29 12:31:56;;;;;;;1.45;0.93;;;22.30;94.30;;;;;;4958499;28;20027;-82
2024/03/29 12:34:22;;;;;;;1.55;0.80;;;22.40;99.90;;;;;;4957299;28;20058;-82
2024/03/29 12:36:48;;;;;;;5.72;1.48;;;22.30;99.90;;;;;;4959122;28;20034;-83
2024/03/29 12:39:13;;;;;;;2.92;1.10;;;22.20;99.90;;;;;;4958451;28;20046;-82
2024/03/29 12:41:39;;;;;;;4.65;1.20;;;22.10;99.90;;;;;;4958951;28;20158;-82
2024/03/29 12:44:06;;;;;;;1.55;0.90;;;22.10;99.90;;;;;;4957545;28;20030;-80
2024/03/29 12:46:32;;;;;;;1.85;0.80;;;22.10;99.90;;;;;;4958574;28;20019;-81
2024/03/29 12:49:00;;;;;;;2.22;1.00;;;22.00;99.90;;;;;;4960123;28;20122;-82
2024/03/29 12:51:29;;;;;;;2.40;0.90;;;21.90;99.90;;;;;;4960384;28;20059;-81
2024/03/29 12:53:55;;;;;;;1.73;1.00;;;21.90;99.90;;;;;;4960052;28;20027;-81
2024/03/29 12:56:21;;;;;;;1.40;0.90;;;21.90;99.90;;;;;;4959980;28;20062;-81